Time;durP1;ratioP1;P1;durP2;ratioP2;P2;SDS_P1;SDS_P2;PMS_P1;PMS_P2;Temp;Humidity;BMP_temperature;BMP_pressure;BME280_temperature;BME280_humidity;BME280_pressure;Samples;Min_cycle;Max_cycle;Signal;HPM_P1;HPM_P2
2022/09/29 00:00:23;;;;;;;2.88;1.80;;;8.10;99.90;;;;;;5095102;27;20043;-75
2022/09/29 00:02:49;;;;;;;4.80;2.08;;;8.00;99.90;;;;;;5122051;27;20046;-74
2022/09/29 00:05:18;;;;;;;3.20;1.80;;;8.10;99.90;;;;;;4974340;27;20443;-74
2022/09/29 00:07:54;;;;;;;3.95;1.88;;;8.10;99.90;;;;;;4935697;27;20300;-75
2022/09/29 00:10:20;;;;;;;3.30;1.77;;;8.00;99.90;;;;;;4968888;27;20050;-74
2022/09/29 00:12:46;;;;;;;4.35;1.92;;;8.10;99.90;;;;;;5111602;27;20114;-74
2022/09/29 00:15:12;;;;;;;3.45;1.92;;;8.10;99.90;;;;;;5111422;27;20118;-75
2022/09/29 00:17:39;;;;;;;2.75;1.80;;;8.10;99.90;;;;;;5129029;27;20121;-75
2022/09/29 00:20:05;;;;;;;3.50;2.08;;;8.10;99.90;;;;;;5114031;27;20086;-74
2022/09/29 00:22:32;;;;;;;4.75;2.33;;;8.00;99.90;;;;;;5019119;27;20197;-75
2022/09/29 00:24:58;;;;;;;3.35;2.20;;;8.10;99.90;;;;;;5028834;27;20833;-75
2022/09/29 00:27:24;;;;;;;5.00;2.60;;;8.10;99.90;;;;;;5048549;27;20459;-75
2022/09/29 00:29:51;;;;;;;3.25;2.08;;;8.10;99.90;;;;;;4929301;27;20147;-75
2022/09/29 00:32:17;;;;;;;4.65;2.33;;;8.00;99.90;;;;;;4946801;28;20047;-74
2022/09/29 00:34:43;;;;;;;3.40;2.15;;;8.10;99.90;;;;;;5099673;28;20354;-74
2022/09/29 00:37:09;;;;;;;3.60;2.03;;;8.00;99.90;;;;;;5091794;28;20063;-74
2022/09/29 00:39:35;;;;;;;4.70;2.35;;;8.10;99.90;;;;;;5125850;27;20091;-74
2022/09/29 00:42:01;;;;;;;5.43;2.28;;;8.10;99.90;;;;;;5124084;27;20421;-74
2022/09/29 00:44:52;;;;;;;3.50;1.95;;;8.10;99.90;;;;;;5129947;27;20047;-74
2022/09/29 00:47:18;;;;;;;3.33;1.85;;;8.10;99.90;;;;;;5087861;27;20420;-74
2022/09/29 00:50:03;;;;;;;3.22;1.92;;;8.10;99.90;;;;;;5130871;27;20050;-74
2022/09/29 00:52:37;;;;;;;5.28;2.00;;;8.10;99.90;;;;;;5113361;27;20046;-74
2022/09/29 00:55:09;;;;;;;6.25;3.13;;;8.00;99.90;;;;;;5017723;27;20039;-74
2022/09/29 00:58:01;;;;;;;5.38;2.30;;;8.00;99.90;;;;;;5114854;27;20050;-74
2022/09/29 01:00:27;;;;;;;5.50;2.15;;;8.00;99.90;;;;;;5102544;27;20075;-74
2022/09/29 01:03:03;;;;;;;3.43;2.27;;;8.00;99.90;;;;;;5118761;27;20601;-75
2022/09/29 01:05:36;;;;;;;3.70;2.10;;;8.00;99.90;;;;;;5097580;27;20472;-74
2022/09/29 01:08:13;;;;;;;3.65;2.35;;;7.90;99.90;;;;;;5101194;27;20164;-75
2022/09/29 01:10:40;;;;;;;5.63;2.95;;;8.00;99.90;;;;;;5100285;27;20040;-74
2022/09/29 01:13:06;;;;;;;4.25;2.75;;;7.90;99.90;;;;;;5094318;27;20087;-75
2022/09/29 01:15:32;;;;;;;3.93;2.50;;;7.90;99.90;;;;;;5109175;27;20115;-75
2022/09/29 01:17:58;;;;;;;6.38;2.67;;;7.90;99.90;;;;;;5095907;27;20050;-75
2022/09/29 01:20:24;;;;;;;4.40;2.50;;;7.90;99.90;;;;;;5093218;27;20427;-75
2022/09/29 01:23:08;;;;;;;4.55;2.90;;;7.80;99.90;;;;;;5114075;27;20286;-75
2022/09/29 01:25:47;;;;;;;4.57;2.42;;;7.80;99.90;;;;;;5102064;27;20458;-74
2022/09/29 01:28:31;;;;;;;4.07;2.45;;;7.70;99.90;;;;;;5119059;27;20028;-74
2022/09/29 01:31:06;;;;;;;4.38;2.50;;;7.70;99.90;;;;;;5101929;27;20031;-75
2022/09/29 01:33:31;;;;;;;4.78;1.95;;;7.70;99.90;;;;;;5103016;27;20116;-74
2022/09/29 01:36:09;;;;;;;5.33;2.70;;;7.60;99.90;;;;;;5118110;27;20066;-75
2022/09/29 01:38:59;;;;;;;3.75;2.28;;;7.60;99.90;;;;;;5104391;27;20043;-74
2022/09/29 01:41:40;;;;;;;3.00;1.95;;;7.50;99.90;;;;;;5107939;27;20331;-75
2022/09/29 01:44:10;;;;;;;3.67;2.50;;;7.50;99.90;;;;;;5114343;27;20087;-75
2022/09/29 01:46:42;;;;;;;3.67;2.33;;;7.40;99.90;;;;;;5101896;27;20078;-74
2022/09/29 01:49:10;;;;;;;4.80;2.42;;;7.40;99.90;;;;;;5096886;27;20087;-74
2022/09/29 01:51:40;;;;;;;4.75;3.03;;;7.40;99.90;;;;;;5098897;27;20036;-75
2022/09/29 01:54:14;;;;;;;4.63;2.42;;;7.40;99.90;;;;;;5101277;27;20095;-75
2022/09/29 01:56:47;;;;;;;3.83;2.35;;;7.30;99.90;;;;;;5119502;27;20047;-74
2022/09/29 01:59:30;;;;;;;4.80;3.08;;;7.40;99.90;;;;;;5121039;27;20038;-75
2022/09/29 02:02:02;;;;;;;4.88;2.95;;;7.30;99.90;;;;;;5119202;27;20045;-75
2022/09/29 02:04:42;;;;;;;5.43;3.13;;;7.30;99.90;;;;;;5101326;27;20561;-74
2022/09/29 02:07:16;;;;;;;4.55;2.95;;;7.30;99.90;;;;;;5101558;27;20050;-74
2022/09/29 02:09:46;;;;;;;8.80;3.20;;;7.30;99.90;;;;;;5097446;27;20040;-75
2022/09/29 02:12:24;;;;;;;4.78;2.92;;;7.20;99.90;;;;;;5105044;22;20039;-70
2022/09/29 02:14:52;;;;;;;4.43;2.95;;;7.20;99.90;;;;;;5083751;28;20036;-70
2022/09/29 02:17:29;;;;;;;5.90;2.90;;;7.20;99.90;;;;;;5065956;28;20646;-70
2022/09/29 02:19:54;;;;;;;5.13;2.37;;;7.10;99.90;;;;;;5077834;28;20217;-70
2022/09/29 02:22:20;;;;;;;4.00;2.57;;;7.10;99.90;;;;;;5088751;28;20039;-70
2022/09/29 02:24:50;;;;;;;5.17;2.80;;;7.10;99.90;;;;;;5105265;28;20035;-70
2022/09/29 02:27:16;;;;;;;4.30;2.70;;;7.10;99.90;;;;;;5084596;28;20824;-69
2022/09/29 02:29:43;;;;;;;4.65;2.78;;;7.10;99.90;;;;;;5082627;28;20405;-69
2022/09/29 02:32:09;;;;;;;6.28;2.63;;;7.00;99.90;;;;;;5088838;28;20054;-70
2022/09/29 02:34:41;;;;;;;4.50;2.63;;;7.00;99.90;;;;;;5106663;28;20044;-70
2022/09/29 02:37:12;;;;;;;5.60;2.72;;;7.10;99.90;;;;;;5105227;28;20101;-70
2022/09/29 02:39:54;;;;;;;8.60;2.85;;;7.00;99.90;;;;;;5096745;27;20069;-70
2022/09/29 02:42:29;;;;;;;5.20;2.92;;;7.00;99.90;;;;;;5078114;28;20126;-71
2022/09/29 02:45:06;;;;;;;4.75;2.67;;;7.00;99.90;;;;;;5076999;28;20047;-69
2022/09/29 02:47:50;;;;;;;6.65;2.80;;;6.90;99.90;;;;;;5084350;28;20047;-69
2022/09/29 02:50:36;;;;;;;4.13;2.38;;;6.90;99.90;;;;;;5112953;28;20122;-69
2022/09/29 02:53:21;;;;;;;3.83;2.58;;;6.90;99.90;;;;;;5106381;28;20034;-70
2022/09/29 02:56:03;;;;;;;4.95;2.72;;;6.90;99.90;;;;;;5108003;28;20043;-69
2022/09/29 02:58:52;;;;;;;3.45;2.65;;;6.90;99.90;;;;;;5100462;27;20509;-69
2022/09/29 03:01:18;;;;;;;4.45;2.35;;;6.90;99.90;;;;;;5089203;28;20448;-70
2022/09/29 03:03:44;;;;;;;4.83;2.77;;;6.80;99.90;;;;;;5123454;27;20205;-69
2022/09/29 03:06:11;;;;;;;4.25;2.50;;;6.80;99.90;;;;;;5084292;28;20074;-69
2022/09/29 03:08:36;;;;;;;3.95;2.58;;;6.80;99.90;;;;;;5073205;27;20044;-69
2022/09/29 03:11:02;;;;;;;4.70;2.60;;;6.80;99.90;;;;;;5095074;28;20040;-69
2022/09/29 03:13:30;;;;;;;5.75;2.50;;;6.70;99.90;;;;;;5114747;27;20475;-70
2022/09/29 03:15:56;;;;;;;3.90;2.43;;;6.70;99.90;;;;;;5090417;28;20039;-70
2022/09/29 03:18:23;;;;;;;3.17;2.23;;;6.70;99.90;;;;;;5108536;28;20106;-70
2022/09/29 03:20:48;;;;;;;2.95;2.20;;;6.70;99.90;;;;;;5070786;28;20054;-70
2022/09/29 03:23:14;;;;;;;2.80;2.23;;;6.60;99.90;;;;;;5097855;27;20079;-70
2022/09/29 03:25:40;;;;;;;3.93;2.70;;;6.60;99.90;;;;;;5093436;28;20062;-77
2022/09/29 03:28:06;;;;;;;3.75;2.60;;;6.60;99.90;;;;;;5108693;28;20028;-69
2022/09/29 03:30:32;;;;;;;3.42;2.40;;;6.60;99.90;;;;;;5083040;28;20058;-69
2022/09/29 03:32:57;;;;;;;4.77;3.07;;;6.50;99.90;;;;;;5094782;28;20118;-70
2022/09/29 03:35:23;;;;;;;4.13;2.90;;;6.60;99.90;;;;;;5110579;27;20035;-69
2022/09/29 03:37:49;;;;;;;3.60;2.67;;;6.50;99.90;;;;;;5098184;28;20115;-69
2022/09/29 03:40:14;;;;;;;3.60;2.50;;;6.50;99.90;;;;;;5116186;27;20395;-69
2022/09/29 03:42:40;;;;;;;4.03;2.60;;;6.50;99.90;;;;;;5124750;27;20035;-69
2022/09/29 03:45:06;;;;;;;3.53;2.87;;;6.50;99.90;;;;;;5091407;28;20068;-70
2022/09/29 03:47:32;;;;;;;4.22;2.67;;;6.50;99.90;;;;;;5100106;28;20119;-69
2022/09/29 03:49:58;;;;;;;3.87;3.00;;;6.50;99.90;;;;;;5104816;28;20524;-70
2022/09/29 03:52:23;;;;;;;4.60;2.93;;;6.50;99.90;;;;;;5101646;27;20489;-70
2022/09/29 03:54:49;;;;;;;3.97;2.53;;;6.50;99.90;;;;;;5073246;28;20044;-70
2022/09/29 03:57:15;;;;;;;4.27;3.00;;;6.50;99.90;;;;;;5085028;27;20031;-70
2022/09/29 03:59:40;;;;;;;4.05;2.90;;;6.50;99.90;;;;;;5119561;27;20166;-69
2022/09/29 04:02:06;;;;;;;4.30;2.93;;;6.50;99.90;;;;;;5106070;28;20044;-69
2022/09/29 04:04:32;;;;;;;4.83;3.00;;;6.60;99.90;;;;;;5097253;27;20384;-69
2022/09/29 04:06:57;;;;;;;5.63;2.90;;;6.60;99.90;;;;;;5070987;28;20260;-70
2022/09/29 04:09:23;;;;;;;4.37;2.83;;;6.60;99.90;;;;;;5113478;27;20120;-70
2022/09/29 04:11:48;;;;;;;5.03;3.00;;;6.60;99.90;;;;;;5088760;28;20075;-70
2022/09/29 04:14:14;;;;;;;4.47;2.80;;;6.60;99.90;;;;;;5110273;27;20034;-70
2022/09/29 04:16:40;;;;;;;7.43;3.53;;;6.60;99.90;;;;;;5083195;28;20044;-69
2022/09/29 04:19:05;;;;;;;4.63;3.00;;;6.60;99.90;;;;;;5109572;27;20112;-69
2022/09/29 04:21:31;;;;;;;4.47;3.27;;;6.60;99.90;;;;;;5083255;28;20035;-69
2022/09/29 04:23:56;;;;;;;4.67;2.90;;;6.60;99.90;;;;;;5108088;28;20481;-69
2022/09/29 04:26:22;;;;;;;5.50;3.10;;;6.50;99.90;;;;;;5115804;27;20473;-70
2022/09/29 04:28:48;;;;;;;4.97;2.87;;;6.50;99.90;;;;;;5110309;27;20055;-69
2022/09/29 04:31:14;;;;;;;5.80;3.53;;;6.50;99.90;;;;;;5091452;28;20043;-69
2022/09/29 04:33:40;;;;;;;8.10;3.50;;;6.50;99.90;;;;;;5083816;28;20431;-70
2022/09/29 04:36:06;;;;;;;4.45;2.95;;;6.50;99.90;;;;;;5108014;28;20055;-69
2022/09/29 04:38:31;;;;;;;5.78;3.50;;;6.50;99.90;;;;;;5086047;28;20056;-69
2022/09/29 04:40:57;;;;;;;4.30;3.00;;;6.50;99.90;;;;;;5071777;27;20046;-69
2022/09/29 04:43:23;;;;;;;6.13;3.47;;;6.50;99.90;;;;;;5107734;27;20170;-69
2022/09/29 04:45:48;;;;;;;8.90;3.57;;;6.50;99.90;;;;;;5084113;28;20059;-69
2022/09/29 04:48:14;;;;;;;5.83;2.80;;;6.50;99.90;;;;;;5100117;28;20054;-69
2022/09/29 04:50:41;;;;;;;7.10;3.50;;;6.40;99.90;;;;;;5108946;27;20090;-69
2022/09/29 04:53:08;;;;;;;5.15;3.42;;;6.40;99.90;;;;;;5103787;28;20035;-69
2022/09/29 04:55:36;;;;;;;5.50;3.70;;;6.40;99.90;;;;;;5101510;27;20074;-69
2022/09/29 04:58:02;;;;;;;8.60;3.17;;;6.40;99.90;;;;;;5098741;28;20130;-69
2022/09/29 05:00:28;;;;;;;5.03;2.87;;;6.40;99.90;;;;;;5087868;28;20350;-69
2022/09/29 05:02:53;;;;;;;4.27;2.93;;;6.40;99.90;;;;;;5078463;28;20458;-69
2022/09/29 05:05:19;;;;;;;6.50;3.47;;;6.40;99.90;;;;;;5084606;28;20705;-69
2022/09/29 05:07:44;;;;;;;5.23;3.43;;;6.30;99.90;;;;;;5093087;28;20039;-69
2022/09/29 05:10:10;;;;;;;5.17;2.90;;;6.30;99.90;;;;;;5106257;28;20032;-69
2022/09/29 05:12:36;;;;;;;5.50;3.38;;;6.30;99.90;;;;;;5097778;27;20023;-70
2022/09/29 05:15:03;;;;;;;6.03;3.30;;;6.30;99.90;;;;;;5076947;28;20142;-71
2022/09/29 05:17:29;;;;;;;5.60;3.08;;;6.30;99.90;;;;;;5079259;28;20134;-71
2022/09/29 05:19:54;;;;;;;4.33;2.77;;;6.30;99.90;;;;;;5100386;28;20181;-71
2022/09/29 05:22:23;;;;;;;4.43;3.13;;;6.20;99.90;;;;;;5076854;28;20560;-71
2022/09/29 05:24:50;;;;;;;5.55;3.28;;;6.20;99.90;;;;;;5084133;27;20182;-71
2022/09/29 05:27:15;;;;;;;5.10;3.10;;;6.20;99.90;;;;;;5079825;28;20044;-71
2022/09/29 05:29:41;;;;;;;5.57;3.37;;;6.20;99.90;;;;;;5082179;28;20401;-72
2022/09/29 05:32:06;;;;;;;4.53;3.30;;;6.10;99.90;;;;;;5095803;28;20424;-71
2022/09/29 05:34:32;;;;;;;5.13;3.33;;;6.20;99.90;;;;;;5097195;28;20512;-71
2022/09/29 05:36:58;;;;;;;4.20;3.07;;;6.20;99.90;;;;;;5102152;28;20504;-71
2022/09/29 05:39:24;;;;;;;4.60;3.03;;;6.20;99.90;;;;;;5097261;28;20049;-71
2022/09/29 05:41:49;;;;;;;5.40;3.40;;;6.10;99.90;;;;;;5074893;28;20121;-72
2022/09/29 05:44:15;;;;;;;6.03;3.73;;;6.10;99.90;;;;;;5086499;28;20489;-72
2022/09/29 05:46:41;;;;;;;5.65;3.42;;;6.20;99.90;;;;;;5078574;28;20039;-71
2022/09/29 05:49:06;;;;;;;5.90;3.70;;;6.20;99.90;;;;;;5102286;27;20043;-72
2022/09/29 05:51:32;;;;;;;8.40;4.30;;;6.20;99.90;;;;;;5102290;28;20040;-73
2022/09/29 05:54:00;;;;;;;4.70;3.63;;;6.20;99.90;;;;;;5079927;28;20047;-73
2022/09/29 05:56:26;;;;;;;5.97;3.78;;;6.30;99.90;;;;;;5099684;27;20130;-72
2022/09/29 05:58:53;;;;;;;6.88;3.78;;;6.30;99.90;;;;;;5065276;28;20039;-72
2022/09/29 06:01:25;;;;;;;8.30;4.50;;;6.40;99.90;;;;;;5094830;28;20050;-72
2022/09/29 06:03:55;;;;;;;7.03;4.38;;;6.30;99.90;;;;;;5080649;28;20269;-71
2022/09/29 06:06:23;;;;;;;7.10;3.90;;;6.20;99.90;;;;;;5101849;28;20118;-71
2022/09/29 06:08:49;;;;;;;9.05;4.30;;;6.30;99.90;;;;;;5096149;28;20043;-72
2022/09/29 06:11:21;;;;;;;8.02;4.57;;;6.30;99.90;;;;;;5082403;28;20055;-72
2022/09/29 06:13:48;;;;;;;8.70;4.60;;;6.40;99.90;;;;;;5100741;28;20639;-71
2022/09/29 06:16:16;;;;;;;7.28;4.53;;;6.40;99.90;;;;;;5091720;28;20119;-71
2022/09/29 06:18:41;;;;;;;6.78;4.18;;;6.50;99.90;;;;;;5096049;28;20047;-71
2022/09/29 06:21:09;;;;;;;8.97;4.73;;;6.50;99.90;;;;;;5100791;27;20040;-71
2022/09/29 06:23:35;;;;;;;7.70;4.45;;;6.50;99.90;;;;;;5099685;28;20560;-71
2022/09/29 06:26:03;;;;;;;7.47;4.72;;;6.60;99.90;;;;;;5100653;28;20175;-71
2022/09/29 06:28:30;;;;;;;7.80;4.95;;;6.60;99.90;;;;;;5087213;28;20054;-71
2022/09/29 06:31:02;;;;;;;7.80;4.35;;;6.60;99.90;;;;;;5071236;28;20118;-71
2022/09/29 06:33:28;;;;;;;8.20;5.20;;;6.70;99.90;;;;;;5093365;28;20533;-71
2022/09/29 06:38:38;;;;;;;7.53;4.70;;;6.80;99.90;;;;;;5098363;28;20048;-71
2022/09/29 06:41:05;;;;;;;8.93;5.37;;;6.80;99.90;;;;;;5107787;27;20036;-71
2022/09/29 06:43:30;;;;;;;12.23;6.35;;;6.90;99.90;;;;;;5097153;28;20039;-72
2022/09/29 06:45:56;;;;;;;16.50;6.57;;;6.90;99.90;;;;;;5099544;28;20046;-71
2022/09/29 06:48:21;;;;;;;20.80;7.63;;;6.90;99.90;;;;;;5085845;28;20039;-72
2022/09/29 06:50:47;;;;;;;10.50;5.70;;;7.00;99.90;;;;;;5083668;28;20494;-71
2022/09/29 06:53:13;;;;;;;8.60;5.30;;;7.00;99.90;;;;;;5083766;28;20080;-71
2022/09/29 06:55:39;;;;;;;8.77;4.78;;;7.00;99.90;;;;;;5097035;28;20389;-71
2022/09/29 06:58:05;;;;;;;9.17;5.03;;;7.10;99.90;;;;;;5101212;28;20070;-71
2022/09/29 07:00:32;;;;;;;9.13;5.50;;;7.10;99.90;;;;;;5098567;28;20615;-72
2022/09/29 07:02:57;;;;;;;10.13;6.15;;;7.20;99.90;;;;;;5103977;28;20062;-72
2022/09/29 07:05:23;;;;;;;8.50;5.33;;;7.20;99.90;;;;;;5105432;28;20493;-71
2022/09/29 07:07:49;;;;;;;11.23;5.43;;;7.30;99.90;;;;;;5088197;28;20046;-71
2022/09/29 07:10:14;;;;;;;8.40;5.30;;;7.30;99.90;;;;;;5098289;28;20038;-72
2022/09/29 07:12:40;;;;;;;7.37;4.83;;;7.40;99.90;;;;;;5085819;28;20130;-72
2022/09/29 07:15:06;;;;;;;8.20;5.13;;;7.40;99.90;;;;;;5082959;28;20050;-72
2022/09/29 07:17:32;;;;;;;10.27;5.70;;;7.50;99.90;;;;;;5094958;28;20134;-72
2022/09/29 07:19:58;;;;;;;9.60;5.10;;;7.50;99.90;;;;;;5099524;28;20463;-71
2022/09/29 07:22:23;;;;;;;8.80;5.70;;;7.50;99.90;;;;;;5082189;28;20039;-72
2022/09/29 07:24:52;;;;;;;10.37;6.00;;;7.60;99.90;;;;;;5098911;28;20036;-71
2022/09/29 07:27:23;;;;;;;10.95;5.80;;;7.60;99.90;;;;;;5103818;28;20166;-72
2022/09/29 07:29:52;;;;;;;11.40;6.03;;;7.70;99.90;;;;;;5077497;28;20066;-72
2022/09/29 07:32:18;;;;;;;10.75;6.60;;;7.80;99.90;;;;;;5084225;28;20126;-72
2022/09/29 07:34:44;;;;;;;11.23;6.30;;;7.90;99.90;;;;;;5099343;28;20038;-72
2022/09/29 07:37:13;;;;;;;19.10;6.53;;;7.90;99.90;;;;;;5065530;28;20457;-72
2022/09/29 07:39:38;;;;;;;9.35;5.97;;;8.00;99.90;;;;;;5089688;28;20076;-72
2022/09/29 07:42:04;;;;;;;12.83;6.87;;;8.10;99.90;;;;;;5081728;28;20031;-72
2022/09/29 07:44:31;;;;;;;9.30;6.63;;;8.10;99.90;;;;;;5098594;27;20032;-72
2022/09/29 07:46:57;;;;;;;12.20;6.32;;;8.20;99.90;;;;;;5102744;27;20495;-72
2022/09/29 07:49:22;;;;;;;10.33;6.57;;;8.10;99.90;;;;;;5104763;27;20070;-72
2022/09/29 07:51:48;;;;;;;12.90;6.20;;;8.30;99.90;;;;;;5102610;27;20765;-72
2022/09/29 07:54:14;;;;;;;9.00;6.47;;;8.50;99.90;;;;;;5104149;27;20127;-72
2022/09/29 07:56:40;;;;;;;12.73;7.20;;;8.50;99.90;;;;;;5081312;27;20307;-72
2022/09/29 07:59:05;;;;;;;12.23;7.37;;;8.60;99.90;;;;;;5084249;27;20043;-72
2022/09/29 08:01:31;;;;;;;12.20;7.03;;;8.70;99.90;;;;;;5092782;28;20042;-72
2022/09/29 08:03:57;;;;;;;13.10;7.40;;;8.70;99.90;;;;;;5100197;27;20344;-72
2022/09/29 08:06:24;;;;;;;11.70;6.40;;;8.80;99.90;;;;;;5102014;27;20059;-72
2022/09/29 08:08:50;;;;;;;12.90;7.68;;;8.90;99.90;;;;;;5109155;27;20386;-73
2022/09/29 08:11:19;;;;;;;14.03;7.57;;;9.00;99.90;;;;;;5088298;28;20046;-72
2022/09/29 08:13:45;;;;;;;13.43;7.32;;;9.10;99.90;;;;;;5097813;27;20760;-72
2022/09/29 08:16:13;;;;;;;15.52;7.97;;;9.20;99.90;;;;;;5097206;28;20035;-71
2022/09/29 08:18:39;;;;;;;14.75;8.15;;;9.30;99.90;;;;;;5085524;27;20044;-71
2022/09/29 08:21:06;;;;;;;13.52;8.32;;;9.40;99.90;;;;;;5104422;27;20565;-71
2022/09/29 08:23:40;;;;;;;12.00;7.57;;;9.50;99.90;;;;;;5085254;28;20059;-72
2022/09/29 08:26:08;;;;;;;12.98;7.18;;;9.60;99.90;;;;;;5103846;28;20479;-72
2022/09/29 08:28:35;;;;;;;14.68;7.70;;;9.70;99.90;;;;;;5081365;27;20043;-72
2022/09/29 08:31:28;;;;;;;13.68;8.05;;;9.80;99.90;;;;;;5102078;28;20091;-72
2022/09/29 08:33:56;;;;;;;12.32;7.43;;;9.90;99.90;;;;;;5081824;28;20084;-72
2022/09/29 08:36:22;;;;;;;14.40;8.02;;;10.10;99.90;;;;;;5106584;27;20124;-72
2022/09/29 08:38:50;;;;;;;14.60;8.50;;;10.20;99.90;;;;;;5080177;27;20074;-72
2022/09/29 08:41:37;;;;;;;13.15;7.75;;;10.30;99.90;;;;;;5102848;27;20529;-72
2022/09/29 08:44:11;;;;;;;13.13;7.80;;;10.40;99.90;;;;;;5104368;28;20035;-72
2022/09/29 08:46:45;;;;;;;14.82;8.05;;;10.50;99.90;;;;;;5081849;27;20180;-72
2022/09/29 08:49:27;;;;;;;12.55;7.85;;;10.60;99.90;;;;;;5095523;28;20157;-72
2022/09/29 08:51:56;;;;;;;14.40;7.82;;;10.80;99.90;;;;;;5103503;28;20212;-72
2022/09/29 08:54:30;;;;;;;13.93;7.35;;;10.90;99.90;;;;;;5087118;28;20608;-72
2022/09/29 08:56:58;;;;;;;12.00;7.43;;;11.00;99.90;;;;;;5106373;27;20453;-72
2022/09/29 08:59:26;;;;;;;12.18;7.10;;;11.10;99.90;;;;;;5065897;28;20259;-72
2022/09/29 09:02:13;;;;;;;11.27;6.55;;;11.20;99.90;;;;;;5094148;28;20091;-72
2022/09/29 09:04:54;;;;;;;10.20;6.05;;;11.30;99.90;;;;;;5078010;28;20567;-72
2022/09/29 09:07:44;;;;;;;8.38;4.75;;;11.40;99.90;;;;;;5081279;28;20165;-73
2022/09/29 09:10:19;;;;;;;8.50;5.03;;;11.50;99.90;;;;;;5080239;28;20240;-73
2022/09/29 09:13:15;;;;;;;8.65;4.82;;;11.50;99.90;;;;;;5082621;28;20028;-73
2022/09/29 09:16:07;;;;;;;9.75;4.85;;;11.60;99.90;;;;;;5082690;28;20074;-70
2022/09/29 09:18:41;;;;;;;8.10;4.60;;;11.70;99.90;;;;;;5103670;28;20132;-70
2022/09/29 09:21:10;;;;;;;6.35;4.00;;;11.80;99.90;;;;;;5101637;28;20035;-71
2022/09/29 09:23:42;;;;;;;8.07;4.78;;;11.80;99.90;;;;;;5102217;28;20478;-71
2022/09/29 09:26:10;;;;;;;9.50;4.65;;;11.90;99.90;;;;;;5101154;27;20191;-70
2022/09/29 09:28:38;;;;;;;6.25;4.00;;;12.00;99.90;;;;;;5099999;27;20043;-71
2022/09/29 09:31:25;;;;;;;5.85;3.78;;;12.00;99.90;;;;;;5066060;28;20124;-71
2022/09/29 09:33:51;;;;;;;6.70;4.03;;;12.10;99.90;;;;;;5045034;28;20047;-71
2022/09/29 09:36:19;;;;;;;9.17;4.83;;;12.20;99.90;;;;;;5082833;28;20397;-71
2022/09/29 09:39:01;;;;;;;7.32;4.38;;;12.30;99.90;;;;;;5105549;27;20492;-71
2022/09/29 09:41:29;;;;;;;7.05;4.40;;;12.30;99.90;;;;;;5084357;28;20135;-71
2022/09/29 09:44:23;;;;;;;8.27;5.10;;;12.50;99.90;;;;;;5095542;28;20039;-71
2022/09/29 09:46:54;;;;;;;8.50;4.18;;;12.60;99.90;;;;;;5082706;28;20056;-70
2022/09/29 09:49:25;;;;;;;7.50;4.38;;;12.70;99.90;;;;;;5101233;28;20047;-71
2022/09/29 09:51:56;;;;;;;8.20;5.60;;;12.80;99.90;;;;;;5073107;28;20411;-71
2022/09/29 09:54:53;;;;;;;9.05;5.25;;;12.90;99.90;;;;;;5082752;28;20119;-70
2022/09/29 09:57:36;;;;;;;7.03;4.40;;;13.10;99.90;;;;;;5062127;27;20047;-71
2022/09/29 10:00:25;;;;;;;5.38;3.85;;;13.20;99.90;;;;;;5093721;28;20035;-71
2022/09/29 10:02:54;;;;;;;6.10;2.65;;;13.30;99.90;;;;;;5088480;27;20047;-70
2022/09/29 10:05:25;;;;;;;7.07;3.42;;;13.40;99.90;;;;;;5104067;27;20074;-71
2022/09/29 10:07:52;;;;;;;5.53;2.90;;;13.40;99.90;;;;;;5101429;28;20054;-71
2022/09/29 10:10:24;;;;;;;5.22;3.38;;;13.50;99.90;;;;;;5087432;28;20078;-71
2022/09/29 10:13:11;;;;;;;5.22;3.15;;;13.60;99.90;;;;;;5087590;27;20039;-71
2022/09/29 10:15:45;;;;;;;5.72;3.20;;;13.70;99.90;;;;;;5085121;27;20039;-70
2022/09/29 10:18:37;;;;;;;4.88;3.08;;;13.70;99.90;;;;;;5080558;28;20886;-70
2022/09/29 10:21:03;;;;;;;5.80;2.50;;;13.80;99.90;;;;;;5071000;28;20047;-70
2022/09/29 10:23:34;;;;;;;3.05;1.80;;;13.90;99.90;;;;;;5083693;28;20323;-70
2022/09/29 10:26:00;;;;;;;5.57;2.08;;;14.00;99.90;;;;;;5095076;28;20402;-70
2022/09/29 10:28:35;;;;;;;3.97;2.10;;;14.00;99.90;;;;;;5101015;28;20039;-71
2022/09/29 10:31:01;;;;;;;6.30;2.58;;;14.10;99.90;;;;;;5091774;28;20092;-70
2022/09/29 10:33:27;;;;;;;5.03;2.00;;;14.10;99.90;;;;;;5097216;27;20043;-70
2022/09/29 10:36:06;;;;;;;3.83;2.20;;;14.20;99.90;;;;;;5078442;28;20047;-71
2022/09/29 10:38:32;;;;;;;2.78;1.35;;;14.20;99.90;;;;;;5101682;28;20123;-70
2022/09/29 10:41:07;;;;;;;2.47;1.27;;;14.30;99.90;;;;;;5085206;28;20095;-71
2022/09/29 10:43:41;;;;;;;3.88;2.15;;;14.40;99.90;;;;;;5085639;28;20059;-70
2022/09/29 10:46:28;;;;;;;2.38;0.95;;;14.50;99.90;;;;;;5095105;28;20039;-70
2022/09/29 10:49:17;;;;;;;2.83;1.35;;;14.50;99.90;;;;;;5080645;28;20456;-71
2022/09/29 10:52:06;;;;;;;3.38;0.90;;;14.40;99.90;;;;;;5085375;28;20042;-71
2022/09/29 10:54:35;;;;;;;5.60;1.02;;;14.50;99.90;;;;;;5101072;28;20040;-70
2022/09/29 10:57:13;;;;;;;2.20;1.17;;;14.60;99.90;;;;;;5096479;28;20040;-70
2022/09/29 10:59:49;;;;;;;1.98;1.10;;;14.70;99.90;;;;;;5098520;28;20040;-70
2022/09/29 11:02:37;;;;;;;2.70;1.35;;;14.70;99.90;;;;;;5085471;28;20384;-71
2022/09/29 11:05:16;;;;;;;2.08;1.20;;;14.80;99.90;;;;;;5098618;28;20051;-71
2022/09/29 11:07:47;;;;;;;1.88;0.98;;;14.90;99.90;;;;;;5080719;28;20455;-70
2022/09/29 11:10:34;;;;;;;1.00;0.60;;;15.00;99.90;;;;;;5101297;28;20036;-71
2022/09/29 11:13:23;;;;;;;0.93;0.45;;;15.00;99.90;;;;;;5075120;28;20071;-71
2022/09/29 11:15:49;;;;;;;1.98;0.60;;;15.10;99.90;;;;;;5080761;28;20263;-70
2022/09/29 11:18:20;;;;;;;;;;;15.20;99.90;;;;;;5075953;28;20131;-71
2022/09/29 11:20:50;;;;;;;1.52;0.82;;;15.20;99.90;;;;;;5086058;28;19931;-71
2022/09/29 11:23:54;;;;;;;1.13;0.50;;;15.20;99.90;;;;;;5114209;27;20035;-75
2022/09/29 11:26:31;;;;;;;1.42;0.80;;;15.20;99.90;;;;;;5081881;28;20043;-75
2022/09/29 11:28:57;;;;;;;;;;;15.30;99.90;;;;;;5102769;27;20382;-74
2022/09/29 11:31:42;;;;;;;0.77;0.30;;;15.40;99.90;;;;;;5080190;27;19929;-75
2022/09/29 11:34:23;;;;;;;2.05;0.73;;;15.50;99.90;;;;;;5084159;28;20099;-75
2022/09/29 11:36:59;;;;;;;1.88;0.68;;;15.50;99.90;;;;;;5087498;28;20043;-75
2022/09/29 11:39:37;;;;;;;0.68;0.40;;;15.50;99.90;;;;;;5110841;27;20067;-75
2022/09/29 11:42:21;;;;;;;0.95;0.60;;;15.30;99.90;;;;;;5082439;28;20035;-76
2022/09/29 11:45:06;;;;;;;0.80;0.40;;;15.30;99.90;;;;;;5091854;28;20070;-75
2022/09/29 11:48:19;;;;;;;1.10;0.60;;;15.40;99.90;;;;;;5084364;28;20047;-75
2022/09/29 11:51:10;;;;;;;1.77;0.70;;;15.50;99.90;;;;;;5061524;28;20118;-75
2022/09/29 11:53:44;;;;;;;1.02;0.43;;;15.70;99.90;;;;;;5084905;28;20649;-75
2022/09/29 11:56:16;;;;;;;1.02;0.60;;;15.80;99.90;;;;;;5079878;28;20043;-75
2022/09/29 11:58:59;;;;;;;0.95;0.60;;;15.70;99.90;;;;;;5086006;28;20134;-75
2022/09/29 12:02:17;;;;;;;1.33;0.50;;;15.60;99.90;;;;;;5078968;28;22140;-75
2022/09/29 12:04:45;;;;;;;0.87;0.47;;;15.70;99.90;;;;;;5001417;28;20057;-75
2022/09/29 12:07:50;;;;;;;2.78;0.40;;;15.70;99.90;;;;;;5019902;28;20368;-75
2022/09/29 12:10:37;;;;;;;1.95;0.57;;;15.60;99.90;;;;;;5061226;28;20407;-76
2022/09/29 12:13:35;;;;;;;2.28;0.47;;;15.60;99.90;;;;;;5083445;28;20040;-75
2022/09/29 12:16:22;;;;;;;1.05;0.40;;;15.70;99.90;;;;;;5079544;28;20079;-75
2022/09/29 12:18:58;;;;;;;1.83;0.70;;;15.80;99.90;;;;;;5086441;28;20100;-75
2022/09/29 12:21:49;;;;;;;1.00;0.47;;;15.80;99.90;;;;;;5080885;28;20247;-75
2022/09/29 12:24:34;;;;;;;4.57;0.85;;;15.80;99.90;;;;;;5098946;28;20062;-75
2022/09/29 12:27:05;;;;;;;9.95;2.17;;;15.80;99.90;;;;;;5103832;28;20039;-75
2022/09/29 12:29:36;;;;;;;2.63;0.88;;;15.80;99.90;;;;;;5100764;27;20361;-76
2022/09/29 12:32:13;;;;;;;3.85;1.00;;;15.80;99.90;;;;;;5082820;28;20040;-76
2022/09/29 12:34:47;;;;;;;0.93;0.40;;;15.60;99.90;;;;;;5103417;28;20354;-75
2022/09/29 12:37:42;;;;;;;1.23;0.40;;;15.60;99.90;;;;;;5105134;28;20500;-75
2022/09/29 12:40:18;;;;;;;2.70;0.50;;;15.50;99.90;;;;;;5082586;28;20047;-75
2022/09/29 12:43:16;;;;;;;1.50;0.55;;;15.40;99.90;;;;;;5104459;28;20240;-75
2022/09/29 12:46:05;;;;;;;0.75;0.40;;;15.40;99.90;;;;;;5109055;27;20503;-75
2022/09/29 12:48:45;;;;;;;1.30;0.93;;;15.20;99.90;;;;;;5058403;28;20092;-75
2022/09/29 12:51:40;;;;;;;1.05;0.47;;;15.10;99.90;;;;;;5088108;28;20081;-76
2022/09/29 12:54:28;;;;;;;2.83;1.00;;;15.00;99.90;;;;;;5081777;28;20044;-76
2022/09/29 12:57:03;;;;;;;1.05;0.60;;;14.90;99.90;;;;;;5095862;27;20107;-76
2022/09/29 12:59:36;;;;;;;1.85;0.75;;;14.80;99.90;;;;;;5101101;27;20126;-77
2022/09/29 13:02:22;;;;;;;1.73;0.98;;;14.70;99.90;;;;;;5101540;28;20039;-76
2022/09/29 13:05:21;;;;;;;1.25;0.60;;;14.60;99.90;;;;;;5104800;27;20169;-76
2022/09/29 13:08:33;;;;;;;1.35;0.35;;;14.60;99.90;;;;;;5092398;28;20141;-76
2022/09/29 13:11:24;;;;;;;1.17;0.60;;;14.50;99.90;;;;;;5085366;27;20070;-76
2022/09/29 13:14:10;;;;;;;0.63;0.30;;;14.50;99.90;;;;;;5074274;28;20503;-75
2022/09/29 13:16:35;;;;;;;1.10;0.32;;;14.50;99.90;;;;;;5102064;27;20180;-76
2022/09/29 13:19:20;;;;;;;2.67;0.47;;;14.40;99.90;;;;;;5102981;28;20338;-76
2022/09/29 13:22:05;;;;;;;0.80;0.40;;;14.40;99.90;;;;;;5078828;28;20105;-76